West Muncie, Indiana
Current Conditions -  °F | °C
As of 4:53 PM on Monday 24 Nov 2014 (Local Time) from KMIE Reporting Station
Light Rain Light Rain  
Wind Chill: 29°   Ceiling: 2300
Heat Index: 38°   Visibility: 10mi
Dew Point: 31°   Wind: 17mph
Humidity: 76%   Direction: 250°WSW
Pressure: 29.67"   Gusts: 25mph
Location:  40.2137°N, 85.5395°W
Report Text: KMIE 242153Z 25015G22KT 10SM -RA OVC023 03/M01 A2967 RMK AO2 PK WND 25027/2127 RAB52 SLP046 P0000 T00331006
Loading
Personal Weather Stations






























Interactive Weather Map New forecast layout! Learn more

10-Day Weather Forecast

Advertisements
Track Severe Weather on mobile